Time;durP1;ratioP1;P1;durP2;ratioP2;P2;SDS_P1;SDS_P2;PMS_P1;PMS_P2;Temp;Humidity;BMP_temperature;BMP_pressure;BME280_temperature;BME280_humidity;BME280_pressure;Samples;Min_cycle;Max_cycle;Signal;HPM_P1;HPM_P2
2023/08/01 00:02:10;;;;;;;6.93;3.30;;;15.20;99.90;;;;;;5050098;28;20015;-83
2023/08/01 00:04:36;;;;;;;8.48;3.90;;;15.30;99.90;;;;;;5052333;28;20568;-83
2023/08/01 00:07:02;;;;;;;6.75;3.38;;;15.40;99.90;;;;;;5053398;28;20024;-83
2023/08/01 00:09:27;;;;;;;6.60;3.58;;;15.40;99.90;;;;;;5052804;28;20032;-83
2023/08/01 00:11:54;;;;;;;4.97;3.95;;;15.50;99.90;;;;;;5053180;28;20044;-83
2023/08/01 00:14:20;;;;;;;4.65;3.33;;;15.50;99.90;;;;;;5053156;28;20017;-83
2023/08/01 00:16:45;;;;;;;8.43;3.83;;;15.50;99.90;;;;;;5049927;28;20135;-83
2023/08/01 00:19:12;;;;;;;6.63;3.53;;;15.60;99.90;;;;;;5053523;28;20087;-83
2023/08/01 00:21:38;;;;;;;6.63;3.83;;;15.70;99.90;;;;;;5054310;28;21210;-83
2023/08/01 00:24:05;;;;;;;5.47;3.45;;;15.70;99.90;;;;;;5046556;28;20045;-83
2023/08/01 00:26:30;;;;;;;8.05;3.58;;;15.70;99.90;;;;;;5052039;28;20478;-84
2023/08/01 00:28:56;;;;;;;8.35;3.70;;;15.80;99.90;;;;;;5052573;28;20052;-84
2023/08/01 00:31:22;;;;;;;6.50;3.55;;;15.80;99.90;;;;;;5049708;28;20021;-84
2023/08/01 00:33:47;;;;;;;10.20;3.60;;;15.80;99.90;;;;;;5049391;28;20025;-83
2023/08/01 00:36:13;;;;;;;6.43;3.33;;;15.80;99.90;;;;;;5052811;28;20375;-83
2023/08/01 00:38:38;;;;;;;3.67;3.38;;;15.80;99.90;;;;;;5052348;28;20013;-83
2023/08/01 00:41:04;;;;;;;8.27;3.47;;;15.80;99.90;;;;;;5052326;28;20072;-84
2023/08/01 00:43:30;;;;;;;11.68;4.15;;;15.80;99.90;;;;;;5052679;28;20122;-83
2023/08/01 00:46:00;;;;;;;3.60;2.90;;;15.80;99.90;;;;;;5053365;28;20391;-83
2023/08/01 00:48:25;;;;;;;4.03;3.03;;;15.80;99.90;;;;;;5052390;28;20021;-83
2023/08/01 00:50:51;;;;;;;6.85;3.25;;;15.80;99.90;;;;;;5053262;28;20063;-83
2023/08/01 00:53:18;;;;;;;6.32;3.22;;;15.80;99.90;;;;;;5053762;28;20127;-83
2023/08/01 00:55:44;;;;;;;6.05;3.17;;;15.80;99.90;;;;;;5052944;28;20044;-83
2023/08/01 00:58:09;;;;;;;5.88;3.70;;;15.80;99.90;;;;;;5052173;28;20104;-84
2023/08/01 01:00:36;;;;;;;5.25;3.13;;;15.70;99.90;;;;;;5053519;28;20397;-84
2023/08/01 01:03:01;;;;;;;5.22;3.40;;;15.70;99.90;;;;;;5051513;28;20448;-83
2023/08/01 01:05:31;;;;;;;14.52;3.92;;;15.70;99.90;;;;;;5051324;28;20064;-84
2023/08/01 01:07:57;;;;;;;4.03;2.90;;;15.60;99.90;;;;;;5050150;28;20017;-83
2023/08/01 01:10:23;;;;;;;7.45;3.65;;;15.70;99.90;;;;;;5051392;28;20055;-84
2023/08/01 01:12:50;;;;;;;4.57;3.75;;;15.70;99.90;;;;;;5052031;28;20029;-84
2023/08/01 01:15:16;;;;;;;7.07;3.22;;;15.60;99.90;;;;;;5053036;28;20072;-83
2023/08/01 01:17:41;;;;;;;7.60;3.80;;;15.60;99.90;;;;;;5052522;28;20036;-83
2023/08/01 01:20:07;;;;;;;5.68;3.17;;;15.50;99.90;;;;;;5046680;28;20030;-83
2023/08/01 01:22:34;;;;;;;4.95;3.30;;;15.50;99.90;;;;;;5053235;28;20117;-83
2023/08/01 01:25:01;;;;;;;5.47;3.42;;;15.50;99.90;;;;;;5051880;28;20044;-83
2023/08/01 01:27:28;;;;;;;5.80;3.30;;;15.40;99.90;;;;;;5045567;28;20501;-83
2023/08/01 01:29:55;;;;;;;6.78;3.10;;;15.30;99.90;;;;;;5051619;28;20036;-83
2023/08/01 01:32:20;;;;;;;6.13;3.38;;;15.30;99.90;;;;;;5051499;28;20028;-83
2023/08/01 01:34:46;;;;;;;5.60;3.35;;;15.30;99.90;;;;;;5050698;28;20036;-82
2023/08/01 01:37:11;;;;;;;6.22;3.95;;;15.30;99.90;;;;;;5052191;28;20078;-83
2023/08/01 01:39:37;;;;;;;7.18;3.55;;;15.30;99.90;;;;;;5042814;28;20071;-83
2023/08/01 01:42:03;;;;;;;6.43;4.05;;;15.20;99.90;;;;;;5053101;28;20029;-82
2023/08/01 01:44:28;;;;;;;8.82;3.30;;;15.20;99.90;;;;;;5052212;28;20486;-83
2023/08/01 01:46:54;;;;;;;4.18;2.92;;;15.20;99.90;;;;;;5051215;28;20063;-83
2023/08/01 01:49:20;;;;;;;8.63;3.35;;;15.20;99.90;;;;;;5050505;28;20033;-82
2023/08/01 01:51:46;;;;;;;6.07;3.38;;;15.10;99.90;;;;;;5051160;28;20033;-82
2023/08/01 01:54:11;;;;;;;4.10;2.90;;;15.10;99.90;;;;;;5052435;28;20017;-82
2023/08/01 01:56:37;;;;;;;6.93;3.10;;;15.00;99.90;;;;;;5052251;28;20025;-82
2023/08/01 01:59:02;;;;;;;6.38;2.90;;;15.00;99.90;;;;;;5050429;28;20052;-83
2023/08/01 02:01:28;;;;;;;4.65;2.92;;;15.00;99.90;;;;;;5051186;28;20600;-83
2023/08/01 02:03:53;;;;;;;5.22;3.40;;;15.00;99.90;;;;;;5050329;28;20076;-82
2023/08/01 02:06:19;;;;;;;11.82;3.58;;;15.00;99.90;;;;;;5050990;28;20032;-83
2023/08/01 02:08:45;;;;;;;7.75;3.65;;;15.00;99.90;;;;;;5050272;28;20017;-83
2023/08/01 02:11:11;;;;;;;4.85;3.17;;;15.00;99.90;;;;;;5052512;28;20406;-83
2023/08/01 02:13:36;;;;;;;8.38;3.65;;;15.10;99.90;;;;;;5050033;28;20078;-83
2023/08/01 02:16:02;;;;;;;6.28;3.05;;;15.20;99.90;;;;;;5052425;28;20033;-83
2023/08/01 02:18:28;;;;;;;4.78;2.95;;;15.20;99.90;;;;;;5048031;28;20017;-83
2023/08/01 02:20:53;;;;;;;5.97;3.08;;;15.30;99.90;;;;;;5051914;28;20037;-83
2023/08/01 02:23:19;;;;;;;5.15;3.28;;;15.30;99.90;;;;;;5050649;28;20028;-83
2023/08/01 02:25:44;;;;;;;3.65;3.30;;;15.30;99.90;;;;;;5050641;28;20037;-83
2023/08/01 02:28:10;;;;;;;7.82;3.15;;;15.40;99.90;;;;;;5050586;28;20013;-83
2023/08/01 02:30:36;;;;;;;6.25;2.65;;;15.40;99.90;;;;;;5050250;28;20061;-83
2023/08/01 02:33:02;;;;;;;4.40;3.20;;;15.40;99.90;;;;;;5038744;28;20021;-83
2023/08/01 02:35:28;;;;;;;4.68;2.83;;;15.40;99.90;;;;;;5050528;28;20139;-82
2023/08/01 02:37:57;;;;;;;3.67;3.17;;;15.40;99.90;;;;;;5048871;28;20025;-83
2023/08/01 02:40:23;;;;;;;8.35;3.50;;;15.50;99.90;;;;;;5043277;28;20466;-82
2023/08/01 02:42:49;;;;;;;4.32;2.95;;;15.50;99.90;;;;;;5051482;28;20028;-82
2023/08/01 02:45:14;;;;;;;5.10;2.72;;;15.40;99.90;;;;;;5050690;28;20549;-82
2023/08/01 02:47:40;;;;;;;6.13;2.88;;;15.50;99.90;;;;;;5048361;28;20036;-82
2023/08/01 02:50:06;;;;;;;7.32;3.40;;;15.40;99.90;;;;;;5048066;28;20104;-82
2023/08/01 02:52:32;;;;;;;4.10;3.30;;;15.40;99.90;;;;;;5051820;28;20112;-82
2023/08/01 02:54:57;;;;;;;6.55;3.55;;;15.40;99.90;;;;;;5049822;28;20055;-83
2023/08/01 02:57:23;;;;;;;5.80;2.88;;;15.30;99.90;;;;;;5050629;28;20035;-83
2023/08/01 02:59:49;;;;;;;9.00;2.90;;;15.30;99.90;;;;;;5049085;28;20103;-83
2023/08/01 03:02:15;;;;;;;4.97;3.35;;;15.30;99.90;;;;;;5049830;28;20057;-83
2023/08/01 03:04:40;;;;;;;5.80;3.03;;;15.20;99.90;;;;;;5050215;28;20123;-83
2023/08/01 03:07:06;;;;;;;5.15;3.33;;;15.20;99.90;;;;;;5049147;28;20552;-83
2023/08/01 03:09:32;;;;;;;6.18;3.00;;;15.20;99.90;;;;;;5049353;28;20032;-83
2023/08/01 03:11:58;;;;;;;4.47;3.03;;;15.10;99.90;;;;;;5050528;28;20391;-83
2023/08/01 03:14:24;;;;;;;4.53;2.75;;;15.10;99.90;;;;;;5048822;28;20029;-82
2023/08/01 03:16:49;;;;;;;4.03;2.65;;;15.10;99.90;;;;;;5042769;28;20068;-83
2023/08/01 03:19:15;;;;;;;6.00;3.00;;;15.10;99.90;;;;;;5051549;28;20033;-83
2023/08/01 03:21:40;;;;;;;16.25;4.63;;;15.00;99.90;;;;;;5050829;28;20036;-82
2023/08/01 03:24:09;;;;;;;7.10;3.30;;;15.00;99.90;;;;;;5050394;28;20037;-83
2023/08/01 03:26:36;;;;;;;5.30;3.50;;;15.00;99.90;;;;;;5052350;28;20041;-82
2023/08/01 03:29:01;;;;;;;7.20;3.58;;;15.00;99.90;;;;;;5054321;28;20041;-82
2023/08/01 03:31:27;;;;;;;3.38;2.55;;;15.00;99.90;;;;;;5049872;28;20065;-83
2023/08/01 03:33:53;;;;;;;5.88;3.03;;;15.00;99.90;;;;;;5056127;28;20041;-83
2023/08/01 03:36:18;;;;;;;6.07;3.15;;;15.00;99.90;;;;;;5055832;28;20142;-82
2023/08/01 03:38:44;;;;;;;4.75;3.22;;;15.00;99.90;;;;;;5056226;28;20111;-83
2023/08/01 03:41:10;;;;;;;5.35;3.10;;;15.00;99.90;;;;;;5055867;28;20033;-83
2023/08/01 03:43:36;;;;;;;3.42;2.75;;;15.10;99.90;;;;;;5055991;28;20037;-83
2023/08/01 03:46:02;;;;;;;3.15;2.85;;;15.00;99.90;;;;;;5055918;28;20025;-83
2023/08/01 03:48:27;;;;;;;8.57;3.25;;;15.20;99.90;;;;;;5055992;28;20532;-83
2023/08/01 03:50:53;;;;;;;9.40;2.88;;;15.20;99.90;;;;;;5055627;28;20021;-83
2023/08/01 03:53:18;;;;;;;5.15;3.30;;;15.30;99.90;;;;;;5054622;28;20056;-83
2023/08/01 03:55:44;;;;;;;6.03;2.90;;;15.50;99.90;;;;;;5054502;28;20620;-83
2023/08/01 03:58:10;;;;;;;3.10;2.80;;;15.60;99.90;;;;;;5053330;28;20029;-83
2023/08/01 04:00:36;;;;;;;8.25;3.38;;;15.70;99.90;;;;;;5054299;28;20056;-83
2023/08/01 04:03:01;;;;;;;4.15;2.65;;;15.90;99.90;;;;;;5054237;28;20041;-83
2023/08/01 04:05:28;;;;;;;7.15;2.90;;;16.20;99.90;;;;;;5054255;28;20032;-83
2023/08/01 04:07:54;;;;;;;6.13;3.50;;;16.50;99.90;;;;;;5054378;28;20112;-83
2023/08/01 04:10:21;;;;;;;5.32;2.80;;;16.70;99.90;;;;;;5054019;28;20413;-83
2023/08/01 04:12:46;;;;;;;2.58;2.30;;;16.80;99.90;;;;;;5055362;28;20108;-83
2023/08/01 04:15:12;;;;;;;5.88;2.92;;;17.00;99.90;;;;;;5054234;28;20060;-84
2023/08/01 04:17:38;;;;;;;4.97;2.78;;;17.00;99.90;;;;;;5055048;28;20466;-83
2023/08/01 04:20:04;;;;;;;4.63;2.92;;;17.10;99.90;;;;;;5054289;28;20371;-83
2023/08/01 04:22:32;;;;;;;6.68;3.00;;;17.10;99.90;;;;;;5054009;28;20493;-83
2023/08/01 04:24:57;;;;;;;3.17;2.70;;;17.10;99.90;;;;;;5056134;28;20037;-83
2023/08/01 04:27:23;;;;;;;7.85;2.75;;;17.10;99.90;;;;;;5053931;28;20413;-83
2023/08/01 04:29:49;;;;;;;3.38;3.03;;;17.10;99.90;;;;;;5056112;28;20386;-83
2023/08/01 04:32:15;;;;;;;4.63;2.80;;;17.10;99.90;;;;;;5054584;28;20111;-83
2023/08/01 04:34:41;;;;;;;4.72;2.70;;;17.10;99.90;;;;;;5055018;28;20028;-83
2023/08/01 04:37:07;;;;;;;5.97;2.40;;;17.10;99.90;;;;;;5055335;28;20374;-83
2023/08/01 04:39:32;;;;;;;7.78;2.67;;;17.10;99.90;;;;;;5053899;28;20020;-83
2023/08/01 04:41:58;;;;;;;6.60;3.20;;;17.20;99.90;;;;;;5053584;28;20389;-83
2023/08/01 04:44:23;;;;;;;2.83;2.50;;;17.30;99.90;;;;;;5054917;28;20041;-83
2023/08/01 04:46:49;;;;;;;7.93;3.45;;;17.40;99.90;;;;;;5053383;28;20433;-83
2023/08/01 04:49:15;;;;;;;4.38;1.98;;;17.40;99.90;;;;;;5054617;28;20108;-83
2023/08/01 04:51:40;;;;;;;12.20;3.35;;;17.50;99.90;;;;;;5054878;28;20025;-83
2023/08/01 04:54:06;;;;;;;6.95;3.47;;;17.60;99.90;;;;;;5053603;28;20048;-83
2023/08/01 04:56:31;;;;;;;5.10;2.45;;;17.60;99.90;;;;;;5053911;28;20063;-84
2023/08/01 04:58:57;;;;;;;4.93;2.60;;;17.80;99.90;;;;;;5053600;28;20013;-84
2023/08/01 05:01:23;;;;;;;5.43;3.03;;;18.00;99.90;;;;;;5042370;28;20056;-84
2023/08/01 05:03:48;;;;;;;6.65;2.50;;;18.30;99.90;;;;;;5047478;28;20406;-84
2023/08/01 05:06:14;;;;;;;3.97;2.72;;;18.40;99.90;;;;;;5054356;28;20454;-83
2023/08/01 05:08:39;;;;;;;3.05;2.63;;;18.70;99.90;;;;;;5052868;28;20421;-84
2023/08/01 05:11:05;;;;;;;2.95;2.15;;;19.00;99.90;;;;;;5054324;28;20477;-84
2023/08/01 05:13:31;;;;;;;2.92;2.35;;;19.10;99.90;;;;;;5054286;28;20064;-84
2023/08/01 05:15:56;;;;;;;4.07;2.33;;;19.30;99.90;;;;;;5046694;28;20068;-83
2023/08/01 05:18:22;;;;;;;5.18;2.50;;;19.40;98.20;;;;;;5048145;28;20028;-84
2023/08/01 05:20:47;;;;;;;5.57;2.40;;;19.40;97.00;;;;;;5048588;28;20024;-84
2023/08/01 05:23:13;;;;;;;4.78;2.85;;;19.40;95.40;;;;;;5046418;28;20386;-84
2023/08/01 05:25:39;;;;;;;4.22;2.70;;;19.40;90.60;;;;;;5049663;28;20052;-83
2023/08/01 05:28:04;;;;;;;4.57;2.38;;;19.40;88.90;;;;;;5038961;28;20116;-83
2023/08/01 05:30:30;;;;;;;5.65;2.45;;;19.40;89.40;;;;;;5043638;28;20013;-83
2023/08/01 05:32:55;;;;;;;4.97;2.53;;;19.40;91.30;;;;;;5049580;28;20431;-83
2023/08/01 05:35:22;;;;;;;2.88;2.40;;;19.40;91.90;;;;;;5050211;28;20021;-83
2023/08/01 05:37:47;;;;;;;2.63;2.08;;;19.30;90.70;;;;;;5044194;28;20475;-83
2023/08/01 05:40:13;;;;;;;4.60;2.40;;;19.30;90.20;;;;;;5050153;28;20017;-82
2023/08/01 05:42:38;;;;;;;4.25;2.10;;;19.20;91.50;;;;;;5044959;28;20018;-82
2023/08/01 05:45:05;;;;;;;3.92;2.50;;;19.20;93.20;;;;;;5048005;28;20621;-83
2023/08/01 05:47:31;;;;;;;5.03;2.25;;;19.20;93.90;;;;;;5048116;28;20021;-83
2023/08/01 05:49:56;;;;;;;3.53;2.20;;;19.20;94.90;;;;;;5050488;28;20100;-83
2023/08/01 05:52:22;;;;;;;4.25;2.40;;;19.20;93.80;;;;;;5045881;28;20526;-83
2023/08/01 05:54:48;;;;;;;2.70;2.38;;;19.30;94.40;;;;;;5051392;28;20429;-83
2023/08/01 05:57:14;;;;;;;3.15;2.70;;;19.30;98.80;;;;;;5048296;28;20026;-83
2023/08/01 05:59:40;;;;;;;5.85;2.83;;;19.40;94.00;;;;;;5051320;28;20048;-83
2023/08/01 06:02:06;;;;;;;3.08;2.55;;;19.40;93.70;;;;;;5052270;28;20070;-83
2023/08/01 06:04:32;;;;;;;4.38;2.50;;;19.50;93.80;;;;;;5052120;28;20052;-83
2023/08/01 06:06:58;;;;;;;7.25;2.10;;;19.50;91.60;;;;;;5053157;28;20021;-84
2023/08/01 06:09:24;;;;;;;3.75;2.33;;;19.60;89.50;;;;;;5051857;28;20514;-83
2023/08/01 06:11:50;;;;;;;6.38;4.25;;;19.70;89.30;;;;;;5044448;28;20111;-83
2023/08/01 06:14:16;;;;;;;5.10;2.35;;;19.80;90.30;;;;;;5039122;28;20467;-83
2023/08/01 06:16:41;;;;;;;5.93;2.60;;;20.10;87.10;;;;;;5036008;28;20032;-83
2023/08/01 06:19:07;;;;;;;2.35;1.95;;;20.20;85.10;;;;;;5040093;28;20014;-83
2023/08/01 06:21:33;;;;;;;3.25;2.03;;;20.30;86.30;;;;;;5041373;28;20382;-83
2023/08/01 06:23:58;;;;;;;3.05;2.60;;;20.40;83.40;;;;;;5047475;28;20029;-83
2023/08/01 06:26:24;;;;;;;4.32;2.40;;;20.40;84.30;;;;;;5032369;28;20025;-83
2023/08/01 06:28:52;;;;;;;2.90;2.30;;;20.40;85.00;;;;;;5032787;28;20050;-83
2023/08/01 06:31:18;;;;;;;4.55;2.45;;;20.40;83.80;;;;;;5047967;28;20467;-83
2023/08/01 06:33:44;;;;;;;3.67;2.45;;;20.40;85.70;;;;;;5049857;28;20032;-84
2023/08/01 06:36:10;;;;;;;4.63;2.60;;;20.40;85.50;;;;;;5051247;28;20025;-83
2023/08/01 06:38:35;;;;;;;6.43;2.80;;;20.40;85.00;;;;;;5052534;28;20102;-83
2023/08/01 06:41:01;;;;;;;4.97;2.58;;;20.40;87.00;;;;;;5051117;28;20025;-83
2023/08/01 06:43:26;;;;;;;5.55;2.65;;;20.40;87.00;;;;;;5052502;28;20029;-84
2023/08/01 06:45:52;;;;;;;2.55;2.35;;;20.40;87.20;;;;;;5046350;28;20111;-83
2023/08/01 06:48:18;;;;;;;5.82;2.65;;;20.40;88.20;;;;;;5046711;28;20021;-83
2023/08/01 06:50:43;;;;;;;8.57;3.78;;;20.40;88.90;;;;;;5043502;28;20010;-82
2023/08/01 06:53:09;;;;;;;6.05;3.00;;;20.30;88.70;;;;;;5047462;28;20429;-83
2023/08/01 06:55:34;;;;;;;7.10;2.90;;;20.30;89.70;;;;;;5043578;28;20108;-82
2023/08/01 06:58:00;;;;;;;4.53;2.92;;;20.30;89.40;;;;;;5051160;28;20096;-83
2023/08/01 07:00:26;;;;;;;6.35;2.95;;;20.20;87.50;;;;;;5050713;28;20458;-83
2023/08/01 07:02:51;;;;;;;5.70;3.00;;;20.30;88.80;;;;;;5051865;28;20051;-83
2023/08/01 07:05:17;;;;;;;4.57;2.80;;;20.20;88.50;;;;;;5051680;28;20033;-82
2023/08/01 07:07:46;;;;;;;3.92;2.85;;;20.20;87.20;;;;;;5047040;28;20025;-83
2023/08/01 07:10:11;;;;;;;6.45;2.58;;;20.20;89.50;;;;;;5051918;28;20079;-82
2023/08/01 07:12:37;;;;;;;11.63;2.45;;;20.20;90.10;;;;;;5051998;28;20033;-83
2023/08/01 07:15:03;;;;;;;3.15;2.17;;;20.20;90.10;;;;;;5051019;28;20021;-82
2023/08/01 07:17:28;;;;;;;2.92;2.63;;;20.20;87.90;;;;;;5047566;28;20490;-82
2023/08/01 07:19:54;;;;;;;6.50;3.15;;;20.20;90.90;;;;;;5039430;28;20150;-83
2023/08/01 07:22:20;;;;;;;3.40;2.58;;;20.20;90.60;;;;;;5042762;28;20494;-83
2023/08/01 07:24:46;;;;;;;3.22;2.85;;;20.20;91.60;;;;;;5033604;28;20045;-83
2023/08/01 07:27:12;;;;;;;5.22;2.47;;;20.20;92.40;;;;;;5057002;28;20091;-83
2023/08/01 07:29:37;;;;;;;2.70;2.10;;;20.30;93.60;;;;;;5039555;28;20036;-81
2023/08/01 07:32:04;;;;;;;3.38;2.50;;;20.40;97.50;;;;;;5050479;28;20048;-81
2023/08/01 07:34:30;;;;;;;4.53;2.90;;;20.40;94.60;;;;;;5042893;28;20026;-81
2023/08/01 07:36:55;;;;;;;5.15;2.85;;;20.50;93.50;;;;;;5042556;28;20034;-82
2023/08/01 07:39:21;;;;;;;6.45;3.05;;;20.60;92.90;;;;;;5043633;28;20027;-82
2023/08/01 07:41:47;;;;;;;5.90;2.85;;;20.70;91.30;;;;;;5049238;28;20055;-81
2023/08/01 07:44:12;;;;;;;7.28;3.22;;;20.80;90.90;;;;;;5048000;28;20147;-82
2023/08/01 07:46:38;;;;;;;4.50;3.35;;;21.00;91.50;;;;;;5042060;28;20474;-81
2023/08/01 07:49:04;;;;;;;8.70;3.95;;;21.20;90.30;;;;;;5033574;28;20391;-82
2023/08/01 07:51:29;;;;;;;10.82;4.50;;;21.30;90.40;;;;;;5050271;28;20484;-83
2023/08/01 07:53:55;;;;;;;12.48;5.53;;;21.30;87.70;;;;;;5051479;28;20025;-83
2023/08/01 07:56:21;;;;;;;11.07;5.03;;;21.40;88.60;;;;;;5045605;28;20478;-83
2023/08/01 07:58:46;;;;;;;14.68;4.57;;;21.50;87.50;;;;;;5044204;28;20013;-83
2023/08/01 08:01:12;;;;;;;14.02;5.57;;;21.60;86.60;;;;;;5038932;28;20028;-83
2023/08/01 08:03:38;;;;;;;10.63;4.20;;;21.70;87.70;;;;;;5051188;28;20045;-83
2023/08/01 08:06:05;;;;;;;8.13;4.55;;;21.80;87.70;;;;;;5049837;28;20024;-83
2023/08/01 08:08:33;;;;;;;12.07;5.22;;;21.80;86.40;;;;;;5051557;28;20032;-83
2023/08/01 08:10:59;;;;;;;6.70;4.00;;;21.90;88.00;;;;;;5032781;28;20500;-84
2023/08/01 08:13:25;;;;;;;9.38;4.65;;;21.90;86.50;;;;;;5047009;28;20537;-83
2023/08/01 08:15:51;;;;;;;11.43;4.57;;;22.10;87.10;;;;;;5034108;28;20026;-83
2023/08/01 08:18:18;;;;;;;9.63;4.78;;;22.10;88.00;;;;;;5034686;28;20461;-83
2023/08/01 08:20:45;;;;;;;8.80;4.25;;;22.30;86.70;;;;;;5042761;28;20100;-84
2023/08/01 08:23:14;;;;;;;17.92;4.95;;;22.50;87.00;;;;;;5053361;28;20028;-84
2023/08/01 08:25:41;;;;;;;9.80;4.75;;;22.60;85.70;;;;;;5053555;28;20656;-85
2023/08/01 08:28:07;;;;;;;8.43;4.50;;;22.50;84.00;;;;;;5053501;28;20045;-86
2023/08/01 08:30:32;;;;;;;7.35;4.20;;;22.50;84.00;;;;;;5053737;28;20041;-84
2023/08/01 08:33:03;;;;;;;8.52;4.05;;;22.30;87.70;;;;;;5052663;28;20063;-83
2023/08/01 08:35:30;;;;;;;8.93;4.20;;;22.20;89.40;;;;;;5054711;28;20100;-84
2023/08/01 08:37:55;;;;;;;10.63;4.68;;;22.00;93.90;;;;;;5053113;28;20394;-84
2023/08/01 08:40:21;;;;;;;6.03;3.88;;;21.90;99.90;;;;;;5053556;28;20079;-83
2023/08/01 08:42:49;;;;;;;4.97;3.55;;;21.80;99.90;;;;;;5052619;28;20048;-84
2023/08/01 08:45:18;;;;;;;6.00;4.57;;;21.80;99.90;;;;;;5042495;28;20048;-83
2023/08/01 08:47:48;;;;;;;5.68;3.65;;;21.80;99.90;;;;;;5053038;28;20436;-80
2023/08/01 08:50:14;;;;;;;4.93;3.17;;;21.80;99.90;;;;;;5054733;28;20025;-80
2023/08/01 08:52:40;;;;;;;4.57;3.30;;;21.80;99.90;;;;;;5053336;28;20013;-82
2023/08/01 08:55:07;;;;;;;6.38;3.50;;;21.80;99.90;;;;;;5053478;28;20040;-82
2023/08/01 08:57:33;;;;;;;3.63;3.30;;;21.80;99.90;;;;;;5055018;28;20364;-80
2023/08/01 09:00:03;;;;;;;4.43;3.28;;;21.90;99.90;;;;;;5056671;28;20044;-84
2023/08/01 09:02:30;;;;;;;6.45;3.42;;;22.00;99.90;;;;;;5054497;28;20446;-82
2023/08/01 09:04:57;;;;;;;5.78;2.95;;;22.00;99.90;;;;;;5052875;28;20143;-82
2023/08/01 09:07:26;;;;;;;5.30;3.53;;;22.00;99.90;;;;;;5053042;28;20052;-83
2023/08/01 09:09:51;;;;;;;5.35;4.10;;;22.10;99.90;;;;;;5054083;28;20390;-82
2023/08/01 09:12:17;;;;;;;6.18;3.38;;;22.10;99.90;;;;;;5052972;28;20013;-83
2023/08/01 09:14:43;;;;;;;5.93;3.88;;;22.00;99.90;;;;;;5053975;28;20025;-83
2023/08/01 09:17:09;;;;;;;5.78;3.90;;;22.00;99.90;;;;;;5054010;28;20012;-83
2023/08/01 09:19:35;;;;;;;5.88;3.70;;;22.00;99.90;;;;;;5052865;28;20128;-83
2023/08/01 09:22:01;;;;;;;6.88;3.58;;;22.10;99.90;;;;;;5048733;28;20029;-84
2023/08/01 09:24:27;;;;;;;5.43;3.90;;;21.90;99.90;;;;;;5046536;28;20079;-83
2023/08/01 09:26:52;;;;;;;8.27;5.13;;;22.00;99.90;;;;;;5050243;28;20063;-83
2023/08/01 09:29:20;;;;;;;6.28;4.18;;;22.20;99.90;;;;;;5044175;28;20485;-84
2023/08/01 09:31:45;;;;;;;8.98;5.30;;;22.30;99.90;;;;;;5046108;28;20041;-83
2023/08/01 09:34:22;;;;;;;6.13;4.15;;;22.50;99.90;;;;;;5038650;28;20364;-83
2023/08/01 09:36:48;;;;;;;9.45;4.80;;;22.60;99.90;;;;;;5050063;28;20036;-83
2023/08/01 09:39:19;;;;;;;6.45;4.60;;;22.60;98.70;;;;;;5051079;28;20036;-83
2023/08/01 09:41:45;;;;;;;8.38;4.50;;;22.80;99.90;;;;;;5041350;28;20064;-82
2023/08/01 09:44:12;;;;;;;7.78;4.93;;;22.80;99.50;;;;;;5044617;28;20506;-82
2023/08/01 09:46:38;;;;;;;9.32;4.68;;;23.00;99.20;;;;;;5052673;28;20029;-82
2023/08/01 09:49:10;;;;;;;7.28;4.40;;;23.10;97.90;;;;;;5052528;28;20432;-82
2023/08/01 09:51:49;;;;;;;6.85;4.93;;;23.10;95.70;;;;;;5052323;28;20509;-82
2023/08/01 09:54:16;;;;;;;6.70;4.43;;;23.10;94.10;;;;;;5048941;28;20036;-83
2023/08/01 09:56:47;;;;;;;7.63;4.60;;;23.20;93.00;;;;;;5051076;28;20029;-83
2023/08/01 09:59:16;;;;;;;7.05;4.72;;;23.30;91.90;;;;;;5049927;28;20021;-83
2023/08/01 10:01:45;;;;;;;7.00;4.90;;;23.40;91.50;;;;;;5050867;28;20037;-83
2023/08/01 10:04:12;;;;;;;7.00;4.50;;;23.40;89.00;;;;;;5051712;28;20045;-82
2023/08/01 10:06:41;;;;;;;8.27;4.75;;;23.60;91.30;;;;;;5050383;28;20044;-82
2023/08/01 10:09:10;;;;;;;8.43;4.65;;;23.40;85.20;;;;;;5044697;28;20130;-82
2023/08/01 10:11:40;;;;;;;7.07;4.18;;;23.50;90.00;;;;;;5040502;28;20045;-83
2023/08/01 10:14:06;;;;;;;5.35;3.55;;;23.70;87.90;;;;;;5043195;28;20033;-82
2023/08/01 10:16:34;;;;;;;5.75;3.60;;;23.80;85.00;;;;;;5045141;28;20095;-83
2023/08/01 10:19:00;;;;;;;5.97;3.63;;;23.70;81.30;;;;;;5044082;28;20117;-83
2023/08/01 10:21:27;;;;;;;7.22;3.67;;;23.70;83.30;;;;;;5041722;28;20028;-83
2023/08/01 10:23:54;;;;;;;6.75;3.58;;;23.50;86.50;;;;;;5044873;28;20419;-83
2023/08/01 10:26:20;;;;;;;3.78;3.38;;;23.60;88.70;;;;;;5049866;28;20108;-83
2023/08/01 10:28:52;;;;;;;5.35;3.30;;;23.60;92.80;;;;;;5050841;28;20113;-82
2023/08/01 10:31:18;;;;;;;;;;;23.50;91.50;;;;;;5042705;28;20017;-82
2023/08/01 10:33:46;;;;;;;4.55;3.65;;;23.30;85.90;;;;;;5042419;28;19905;-84
2023/08/01 10:36:23;;;;;;;5.88;3.90;;;23.10;89.20;;;;;;5050191;28;20017;-82
2023/08/01 10:38:54;;;;;;;6.43;3.85;;;23.00;93.00;;;;;;5048937;28;20037;-82
2023/08/01 10:41:42;;;;;;;6.18;3.80;;;22.90;97.40;;;;;;5049864;28;20075;-82
2023/08/01 10:44:12;;;;;;;7.32;4.40;;;22.80;99.90;;;;;;5046238;28;20056;-82
2023/08/01 10:47:10;;;;;;;5.10;3.58;;;22.80;99.90;;;;;;5044059;28;20021;-82
2023/08/01 10:49:38;;;;;;;9.55;3.83;;;22.70;99.90;;;;;;5033452;28;20114;-82
2023/08/01 10:52:15;;;;;;;3.90;3.17;;;22.60;99.90;;;;;;5041944;28;20026;-82
2023/08/01 10:54:41;;;;;;;5.47;3.85;;;22.50;99.90;;;;;;5047932;28;20021;-82
2023/08/01 10:57:07;;;;;;;6.43;4.68;;;22.40;99.90;;;;;;5044313;28;20093;-82
2023/08/01 10:59:34;;;;;;;5.03;3.85;;;22.40;99.90;;;;;;5047812;28;20025;-82
2023/08/01 11:02:01;;;;;;;4.07;3.67;;;22.30;99.90;;;;;;5044196;28;21006;-82
2023/08/01 11:04:27;;;;;;;4.93;4.45;;;22.10;99.90;;;;;;5033497;28;20056;-82
2023/08/01 11:06:56;;;;;;;4.85;3.85;;;22.00;99.90;;;;;;5033328;28;20391;-82
2023/08/01 11:09:28;;;;;;;4.35;3.75;;;21.70;99.90;;;;;;5032726;28;20517;-83
2023/08/01 11:11:56;;;;;;;5.95;3.90;;;21.70;99.90;;;;;;5035097;28;20022;-83
2023/08/01 11:14:23;;;;;;;6.13;3.85;;;21.60;99.90;;;;;;5037504;28;20118;-82
2023/08/01 11:16:50;;;;;;;4.25;3.25;;;21.60;99.90;;;;;;5048795;28;20466;-80
2023/08/01 11:19:20;;;;;;;6.78;3.85;;;21.30;99.90;;;;;;5047839;28;20524;-81
2023/08/01 11:21:46;;;;;;;6.85;4.00;;;21.20;99.90;;;;;;5035457;28;20603;-81
2023/08/01 11:24:12;;;;;;;3.20;2.90;;;20.90;99.90;;;;;;5033013;28;20052;-80
2023/08/01 11:26:46;;;;;;;4.57;2.85;;;20.70;99.90;;;;;;5045933;28;20013;-81
2023/08/01 11:29:12;;;;;;;5.05;3.70;;;20.60;99.90;;;;;;5038575;28;20061;-81
2023/08/01 11:31:39;;;;;;;5.38;3.20;;;20.50;99.90;;;;;;5048740;28;20021;-81
2023/08/01 11:34:05;;;;;;;5.07;4.10;;;20.30;99.90;;;;;;5050536;28;20041;-80
2023/08/01 11:36:31;;;;;;;6.38;3.40;;;20.20;99.90;;;;;;5042981;28;20033;-81
2023/08/01 11:39:00;;;;;;;9.18;3.40;;;20.20;99.90;;;;;;5037907;28;20083;-81
2023/08/01 11:41:27;;;;;;;4.80;3.03;;;20.00;99.90;;;;;;5044661;28;20726;-80
2023/08/01 11:43:54;;;;;;;6.25;3.85;;;19.90;99.90;;;;;;5048739;28;20034;-80
2023/08/01 11:46:21;;;;;;;4.18;3.55;;;19.60;99.90;;;;;;5046526;28;20127;-80
2023/08/01 11:48:47;;;;;;;7.63;3.35;;;19.50;99.90;;;;;;5051194;28;20033;-81
2023/08/01 11:51:13;;;;;;;8.18;3.80;;;19.30;99.90;;;;;;5050175;28;20028;-80
2023/08/01 11:53:39;;;;;;;5.22;3.85;;;19.30;99.90;;;;;;5050790;28;20425;-80
2023/08/01 11:56:05;;;;;;;4.70;3.95;;;19.30;99.90;;;;;;5045710;28;20025;-80
2023/08/01 11:58:33;;;;;;;6.05;4.45;;;19.30;99.90;;;;;;5044585;28;20442;-82
2023/08/01 12:01:09;;;;;;;6.10;3.53;;;19.30;99.90;;;;;;5042215;28;20028;-81
2023/08/01 12:03:54;;;;;;;5.20;3.88;;;19.20;99.90;;;;;;5045994;28;20098;-82
2023/08/01 12:06:22;;;;;;;4.35;3.75;;;19.20;99.90;;;;;;5038727;28;20025;-81
2023/08/01 12:08:51;;;;;;;6.50;4.32;;;19.20;99.90;;;;;;5042396;28;20048;-81
2023/08/01 12:11:25;;;;;;;5.10;4.00;;;19.10;99.90;;;;;;5042279;28;20131;-81
2023/08/01 12:14:13;;;;;;;7.13;4.85;;;19.20;99.90;;;;;;5043467;28;20047;-81
2023/08/01 12:16:44;;;;;;;9.70;5.03;;;19.20;99.90;;;;;;5038242;28;20052;-81
2023/08/01 12:19:10;;;;;;;8.43;5.80;;;19.20;99.90;;;;;;5048315;28;20036;-81
2023/08/01 12:21:37;;;;;;;9.15;5.28;;;19.20;99.90;;;;;;5037999;28;20116;-81
2023/08/01 12:24:05;;;;;;;8.63;5.93;;;19.30;99.90;;;;;;5040084;28;20048;-82
2023/08/01 12:26:31;;;;;;;8.10;5.72;;;19.20;99.90;;;;;;5037801;28;20025;-81
2023/08/01 12:28:56;;;;;;;7.10;5.47;;;19.20;99.90;;;;;;5048670;28;20516;-81
2023/08/01 12:31:23;;;;;;;8.27;5.65;;;19.20;99.90;;;;;;5034532;28;20043;-80
2023/08/01 12:33:49;;;;;;;8.15;4.78;;;19.30;99.90;;;;;;5037079;28;20033;-81
2023/08/01 12:36:15;;;;;;;6.32;5.10;;;19.20;99.90;;;;;;5036739;28;20212;-81
2023/08/01 12:38:41;;;;;;;5.15;3.97;;;19.30;99.90;;;;;;5050715;28;20044;-82
2023/08/01 12:41:07;;;;;;;6.63;4.90;;;19.30;99.90;;;;;;5052367;28;20013;-81
2023/08/01 12:43:33;;;;;;;5.00;4.00;;;19.20;99.90;;;;;;5039778;28;20125;-81